createdAt,value
2019-02-04T00:02:18.979Z,60.80
2019-02-04T00:05:11.561Z,61.00
2019-02-04T00:08:04.617Z,61.20
2019-02-04T00:10:59.260Z,61.50
2019-02-04T00:13:51.396Z,61.30
2019-02-04T00:16:45.125Z,60.90
2019-02-04T00:19:37.577Z,61.00
2019-02-04T00:22:30.042Z,61.00
2019-02-04T00:25:22.595Z,60.70
2019-02-04T00:28:15.942Z,60.80
2019-02-04T00:31:08.653Z,60.90
2019-02-04T00:34:01.482Z,61.20
2019-02-04T00:36:54.294Z,60.70
2019-02-04T00:39:47.631Z,60.70
2019-02-04T00:42:40.214Z,60.80
2019-02-04T00:45:33.250Z,60.60
2019-02-04T00:48:26.256Z,60.70
2019-02-04T00:51:18.850Z,61.00
2019-02-04T00:54:11.130Z,60.80
2019-02-04T00:57:03.891Z,60.60
2019-02-04T00:59:56.554Z,61.00
2019-02-04T01:02:49.044Z,61.10
2019-02-04T01:05:41.684Z,60.90
2019-02-04T01:08:35.326Z,60.60
2019-02-04T01:11:28.327Z,60.90
2019-02-04T01:14:21.059Z,61.00
2019-02-04T01:17:13.844Z,60.50
2019-02-04T01:20:06.576Z,60.80
2019-02-04T01:22:59.273Z,61.20
2019-02-04T01:25:52.619Z,61.00
2019-02-04T01:28:47.829Z,61.10
2019-02-04T01:31:41.596Z,61.10
2019-02-04T01:34:34.066Z,61.10
2019-02-04T01:37:26.380Z,61.30
2019-02-04T01:40:19.996Z,61.10
2019-02-04T01:43:14.547Z,61.10
2019-02-04T01:46:07.365Z,61.40
2019-02-04T01:49:00.028Z,61.30
2019-02-04T01:51:52.969Z,61.30
2019-02-04T01:54:48.848Z,61.20
2019-02-04T01:57:41.589Z,61.20
2019-02-04T02:00:35.411Z,61.20
2019-02-04T02:03:28.781Z,62.10
2019-02-04T02:06:21.384Z,61.20
2019-02-04T02:09:23.731Z,61.40
2019-02-04T02:12:16.279Z,61.70
2019-02-04T02:15:08.884Z,61.60
2019-02-04T02:18:01.432Z,61.80
2019-02-04T02:20:53.629Z,61.70
2019-02-04T02:23:45.893Z,61.60
2019-02-04T02:26:38.567Z,61.50
2019-02-04T02:29:30.968Z,61.60
2019-02-04T02:32:26.338Z,61.80
2019-02-04T02:35:18.708Z,62.00
2019-02-04T02:38:10.804Z,61.90
2019-02-04T02:41:03.547Z,62.10
2019-02-04T02:43:55.932Z,62.20
2019-02-04T02:46:49.329Z,62.30
2019-02-04T02:49:41.589Z,62.00
2019-02-04T02:52:33.998Z,61.80
2019-02-04T02:55:26.368Z,62.10
2019-02-04T02:58:18.957Z,61.80
2019-02-04T03:01:11.208Z,61.90
2019-02-04T03:04:04.133Z,61.70
2019-02-04T03:06:56.553Z,61.30
2019-02-04T03:09:49.040Z,61.80
2019-02-04T03:12:41.188Z,61.10
2019-02-04T03:15:33.598Z,61.50
2019-02-04T03:18:25.622Z,61.50
2019-02-04T03:21:17.955Z,61.80
2019-02-04T03:24:10.385Z,61.70
2019-02-04T03:27:03.370Z,62.00
2019-02-04T03:29:55.611Z,61.90
2019-02-04T03:32:47.707Z,61.70
2019-02-04T03:35:39.995Z,61.80
2019-02-04T03:38:32.520Z,61.60
2019-02-04T03:41:25.529Z,61.50
2019-02-04T03:44:18.314Z,61.90
2019-02-04T03:47:10.664Z,62.20
2019-02-04T03:50:03.027Z,62.40
2019-02-04T03:52:55.413Z,62.20
2019-02-04T03:55:47.999Z,62.30
2019-02-04T04:13:44.688Z,61.60
2019-02-04T04:16:37.265Z,61.50
2019-02-04T04:19:30.304Z,61.70
2019-02-04T04:22:23.064Z,61.90
2019-02-04T04:25:16.182Z,62.20
2019-02-04T04:28:08.394Z,62.10
2019-02-04T04:31:00.796Z,62.10
2019-02-04T04:33:53.470Z,62.10
2019-02-04T04:36:46.234Z,62.10
2019-02-04T04:39:57.748Z,62.40
2019-02-04T04:42:51.804Z,62.60
2019-02-04T04:45:44.089Z,62.40
2019-02-04T04:48:36.602Z,62.40
2019-02-04T04:51:30.565Z,62.60
2019-02-04T04:54:22.966Z,62.50
2019-02-04T04:57:18.493Z,62.20
2019-02-04T05:00:12.902Z,62.00
2019-02-04T05:03:05.660Z,62.00
2019-02-04T05:06:00.092Z,62.00
2019-02-04T05:08:56.818Z,61.80
2019-02-04T05:11:53.500Z,61.40
2019-02-04T05:14:45.868Z,64.40
2019-02-04T05:17:39.743Z,65.00
2019-02-04T05:20:33.601Z,64.50
2019-02-04T05:23:30.545Z,63.40
2019-02-04T05:26:29.214Z,62.70
2019-02-04T05:29:27.695Z,62.10
2019-02-04T05:32:25.121Z,61.60
2019-02-04T05:35:23.874Z,61.20
2019-02-04T05:38:21.301Z,61.00
2019-02-04T05:41:17.739Z,60.90
2019-02-04T05:44:13.661Z,60.90
2019-02-04T05:47:11.312Z,60.90
2019-02-04T05:50:03.595Z,61.40
2019-02-04T05:52:55.393Z,62.00
2019-02-04T05:55:48.171Z,62.30
2019-02-04T05:58:42.302Z,62.40
2019-02-04T06:01:34.636Z,62.40
2019-02-04T06:04:28.090Z,62.40
2019-02-04T06:07:25.205Z,62.30
2019-02-04T06:10:19.681Z,62.20
2019-02-04T06:13:13.837Z,62.20
2019-02-04T06:16:08.279Z,62.30
2019-02-04T06:19:01.287Z,62.50
2019-02-04T06:21:53.733Z,62.40
2019-02-04T06:24:48.418Z,62.20
2019-02-04T06:27:45.450Z,62.10
2019-02-04T06:30:42.456Z,61.80
2019-02-04T06:33:58.041Z,61.90
2019-02-04T06:36:50.750Z,62.20
2019-02-04T06:39:51.465Z,62.10
2019-02-04T06:42:50.611Z,61.90
2019-02-04T06:45:46.042Z,61.50
2019-02-04T06:48:43.524Z,61.20
2019-02-04T06:51:39.823Z,60.90
2019-02-04T06:54:33.652Z,60.80
2019-02-04T06:57:27.563Z,60.40
2019-02-04T07:00:20.643Z,60.30
2019-02-04T07:03:14.265Z,60.10
2019-02-04T07:06:08.257Z,59.50
2019-02-04T07:09:01.594Z,59.80
2019-02-04T07:12:00.375Z,60.30
2019-02-04T07:14:55.045Z,61.10
2019-02-04T07:17:48.651Z,61.40
2019-02-04T07:20:41.861Z,61.70
2019-02-04T07:23:37.192Z,61.90
2019-02-04T07:26:38.390Z,62.10
2019-02-04T07:29:36.668Z,62.10
2019-02-04T07:32:34.150Z,62.20
2019-02-04T07:35:32.841Z,62.10
2019-02-04T07:38:25.528Z,62.30
2019-02-04T07:41:22.049Z,62.00
2019-02-04T07:44:22.852Z,60.90
2019-02-04T07:47:19.137Z,61.10
2019-02-04T07:50:24.171Z,61.70
2019-02-04T07:53:19.061Z,62.20
2019-02-04T07:56:11.939Z,62.40
2019-02-04T07:59:04.870Z,62.90
2019-02-04T08:01:57.923Z,63.00
2019-02-04T08:04:53.554Z,63.30
2019-02-04T08:07:46.376Z,63.30
2019-02-04T08:10:38.958Z,63.50
2019-02-04T08:13:32.345Z,63.40
2019-02-04T08:16:25.523Z,63.40
2019-02-04T08:19:18.027Z,63.50
2019-02-04T08:22:10.592Z,63.50
2019-02-04T08:25:03.187Z,63.70
2019-02-04T08:28:02.126Z,63.70
2019-02-04T08:30:56.462Z,63.90
2019-02-04T08:33:48.584Z,63.90
2019-02-04T08:36:46.301Z,63.80
2019-02-04T08:39:41.801Z,64.00
2019-02-04T08:42:35.454Z,64.10
2019-02-04T08:45:28.036Z,64.20
2019-02-04T08:48:20.617Z,64.00
2019-02-04T08:51:13.489Z,63.20
2019-02-04T08:54:05.540Z,63.40
2019-02-04T08:56:58.612Z,63.90
2019-02-04T08:59:52.498Z,64.20
2019-02-04T09:02:45.942Z,64.10
2019-02-04T09:05:38.911Z,63.70
2019-02-04T09:08:33.017Z,64.10
2019-02-04T09:11:25.718Z,64.10
2019-02-04T09:14:19.867Z,62.90
2019-02-04T09:17:12.994Z,63.00
2019-02-04T09:20:10.094Z,63.00
2019-02-04T09:23:05.831Z,62.70
2019-02-04T09:26:00.598Z,62.70
2019-02-04T09:28:57.804Z,62.20
2019-02-04T09:31:52.268Z,62.40
2019-02-04T09:34:56.292Z,62.40
2019-02-04T09:37:56.385Z,62.50
2019-02-04T09:40:54.124Z,62.60
2019-02-04T09:43:48.383Z,62.80
2019-02-04T09:46:42.151Z,62.60
2019-02-04T09:49:37.403Z,62.90
2019-02-04T09:52:30.237Z,63.10
2019-02-04T09:55:24.286Z,63.00
2019-02-04T09:58:17.338Z,62.80
2019-02-04T10:01:11.633Z,62.90
2019-02-04T10:04:06.254Z,62.90
2019-02-04T10:07:02.738Z,62.80
2019-02-04T10:09:58.959Z,62.70
2019-02-04T10:12:52.563Z,62.90
2019-02-04T10:15:46.199Z,62.90
2019-02-04T10:18:43.501Z,62.90
2019-02-04T10:21:36.112Z,62.70
2019-02-04T10:24:29.463Z,62.80
2019-02-04T10:27:22.108Z,62.60
2019-02-04T10:30:17.281Z,62.50
2019-02-04T10:33:10.089Z,62.40
2019-02-04T10:36:03.840Z,62.70
2019-02-04T10:39:03.051Z,62.40
2019-02-04T10:41:56.936Z,62.40
2019-02-04T10:44:50.208Z,62.60
2019-02-04T10:47:53.134Z,62.70
2019-02-04T10:51:09.802Z,62.60
2019-02-04T10:54:04.918Z,63.00
2019-02-04T10:56:59.944Z,62.70
2019-02-04T10:59:55.706Z,63.40
2019-02-04T11:02:49.977Z,62.60
2019-02-04T11:05:42.846Z,62.70
2019-02-04T11:08:39.467Z,62.80
2019-02-04T11:11:38.114Z,63.00
2019-02-04T11:14:34.389Z,63.20
2019-02-04T11:17:38.389Z,63.20
2019-02-04T11:20:38.671Z,63.40
2019-02-04T11:23:36.959Z,63.50
2019-02-04T11:26:36.234Z,63.90
2019-02-04T11:29:39.669Z,64.20
2019-02-04T11:32:40.416Z,64.40
2019-02-04T11:35:42.300Z,64.60
2019-02-04T11:38:45.030Z,64.60
2019-02-04T11:41:50.761Z,65.00
2019-02-04T11:44:51.493Z,65.00
2019-02-04T11:47:49.235Z,65.30
2019-02-04T11:50:55.942Z,64.90
2019-02-04T11:53:54.227Z,65.10
2019-02-04T11:56:50.069Z,65.20
2019-02-04T11:59:46.098Z,65.30
2019-02-04T12:02:44.159Z,65.30
2019-02-04T12:06:00.805Z,65.30
2019-02-04T12:09:03.512Z,65.30
2019-02-04T12:12:02.738Z,65.20
2019-02-04T12:15:00.666Z,65.50
2019-02-04T12:18:01.993Z,65.40
2019-02-04T12:20:56.965Z,65.40
2019-02-04T12:23:50.492Z,65.80
2019-02-04T12:26:44.043Z,65.80
2019-02-04T12:29:37.966Z,65.90
2019-02-04T12:32:31.357Z,66.80
2019-02-04T12:35:25.298Z,66.30
2019-02-04T12:38:19.503Z,66.10
2019-02-04T12:41:13.556Z,66.10
2019-02-04T12:44:12.402Z,66.20
2019-02-04T12:47:10.330Z,66.50
2019-02-04T12:50:16.887Z,66.70
2019-02-04T12:53:19.156Z,66.80
2019-02-04T12:56:27.731Z,67.20
2019-02-04T12:59:29.013Z,67.50
2019-02-04T13:02:33.274Z,67.30
2019-02-04T13:05:46.125Z,67.40
2019-02-04T13:08:59.041Z,67.80
2019-02-04T13:12:11.291Z,67.80
2019-02-04T13:15:20.828Z,67.80
2019-02-04T13:18:21.696Z,67.40
2019-02-04T13:21:25.271Z,68.30
2019-02-04T13:24:30.313Z,67.10
2019-02-04T13:27:38.214Z,66.10
2019-02-04T13:30:50.117Z,66.80
2019-02-04T13:33:53.975Z,67.20
2019-02-04T13:37:02.060Z,67.10
2019-02-04T13:40:05.987Z,66.80
2019-02-04T13:43:15.407Z,66.60
2019-02-04T13:46:21.194Z,66.70
2019-02-04T13:49:28.085Z,66.80
2019-02-04T13:52:37.595Z,66.70
2019-02-04T13:55:44.371Z,66.80
2019-02-04T13:58:53.341Z,66.60
2019-02-04T14:02:02.848Z,66.50
2019-02-04T14:05:06.632Z,66.40
2019-02-04T14:08:10.431Z,66.40
2019-02-04T14:11:13.974Z,66.20
2019-02-04T14:14:17.835Z,65.90
2019-02-04T14:17:24.399Z,65.50
2019-02-04T14:20:28.579Z,65.40
2019-02-04T14:23:33.881Z,65.40
2019-02-04T14:26:39.382Z,65.30
2019-02-04T14:29:45.434Z,65.20
2019-02-04T14:32:50.410Z,65.10
2019-02-04T14:35:55.824Z,65.00
2019-02-04T14:39:00.321Z,65.00
2019-02-04T14:42:05.794Z,65.00
2019-02-04T14:45:14.323Z,64.80
2019-02-04T14:48:26.534Z,64.80
2019-02-04T14:51:52.089Z,64.60
2019-02-04T14:55:18.605Z,64.60
2019-02-04T14:58:47.409Z,64.60
2019-02-04T15:02:16.155Z,64.60
2019-02-04T15:05:38.733Z,64.60
2019-02-04T15:08:47.966Z,64.60
2019-02-04T15:12:03.241Z,64.50
2019-02-04T15:15:03.777Z,64.40
2019-02-04T15:18:16.268Z,64.30
2019-02-04T15:21:28.138Z,64.30
2019-02-04T15:24:37.842Z,64.30
2019-02-04T15:27:49.146Z,64.20
2019-02-04T15:30:52.199Z,64.20
2019-02-04T15:33:51.468Z,64.20
2019-02-04T15:37:01.266Z,64.10
2019-02-04T15:40:03.467Z,64.10
2019-02-04T15:43:14.525Z,64.00
2019-02-04T15:46:36.508Z,64.00
2019-02-04T15:49:50.722Z,64.00
2019-02-04T15:52:45.619Z,64.00
2019-02-04T15:55:33.390Z,63.80
2019-02-04T15:58:26.250Z,63.80
2019-02-04T16:01:19.293Z,63.80
2019-02-04T16:04:31.084Z,63.70
2019-02-04T16:07:24.199Z,63.70
2019-02-04T16:10:18.359Z,63.60
2019-02-04T16:13:10.951Z,63.70
2019-02-04T16:16:03.997Z,63.50
2019-02-04T16:18:56.341Z,63.40
2019-02-04T16:21:50.199Z,63.40
2019-02-04T16:24:43.423Z,63.30
2019-02-04T16:27:37.702Z,63.40
2019-02-04T16:30:30.661Z,63.30
2019-02-04T16:33:24.521Z,63.20
2019-02-04T16:36:17.884Z,63.20
2019-02-04T16:39:12.365Z,63.30
2019-02-04T16:42:05.581Z,63.00
2019-02-04T16:44:58.413Z,62.90
2019-02-04T16:47:51.232Z,62.90
2019-02-04T16:51:03.442Z,62.80
2019-02-04T16:53:41.541Z,62.80
2019-02-04T16:56:34.544Z,62.80
2019-02-04T16:59:27.839Z,62.70
2019-02-04T17:02:20.457Z,62.80
2019-02-04T17:05:16.473Z,62.70
2019-02-04T17:08:08.647Z,62.60
2019-02-04T17:11:01.635Z,62.70
2019-02-04T17:13:54.995Z,62.80
2019-02-04T17:16:48.067Z,62.70
2019-02-04T17:19:41.955Z,62.60
2019-02-04T17:22:35.970Z,62.50
2019-02-04T17:25:30.672Z,62.50
2019-02-04T17:28:24.328Z,62.40
2019-02-04T17:31:18.509Z,62.40
2019-02-04T17:34:11.832Z,62.40
2019-02-04T17:37:04.725Z,62.40
2019-02-04T17:39:58.701Z,62.40
2019-02-04T17:42:51.470Z,62.50
2019-02-04T17:45:44.742Z,62.40
2019-02-04T17:48:38.022Z,62.20
2019-02-04T17:51:31.967Z,62.20
2019-02-04T17:54:24.947Z,62.00
2019-02-04T17:57:18.403Z,62.40
2019-02-04T18:00:14.950Z,62.40
2019-02-04T18:03:08.315Z,62.50
2019-02-04T18:06:01.777Z,62.50
2019-02-04T18:08:56.387Z,62.50
2019-02-04T18:11:50.308Z,62.40
2019-02-04T18:14:43.283Z,63.20
2019-02-04T18:17:35.651Z,62.10
2019-02-04T18:20:29.223Z,62.20
2019-02-04T18:23:21.836Z,62.10
2019-02-04T18:26:15.378Z,62.00
2019-02-04T18:29:08.505Z,62.20
2019-02-04T18:32:01.363Z,61.80
2019-02-04T18:34:54.276Z,61.30
2019-02-04T18:37:47.387Z,61.40
2019-02-04T18:40:40.247Z,61.70
2019-02-04T18:43:32.901Z,62.00
2019-02-04T18:46:25.584Z,62.10
2019-02-04T18:49:18.739Z,62.20
2019-02-04T18:52:11.371Z,61.70
2019-02-04T18:55:04.401Z,62.40
2019-02-04T18:57:57.321Z,62.50
2019-02-04T19:00:49.941Z,62.40
2019-02-04T19:03:42.954Z,62.20
2019-02-04T19:06:47.092Z,61.90
2019-02-04T19:09:29.785Z,62.10
2019-02-04T19:12:22.361Z,62.40
2019-02-04T19:15:16.533Z,62.60
2019-02-04T19:18:10.276Z,62.60
2019-02-04T19:21:02.717Z,62.90
2019-02-04T19:23:55.045Z,63.20
2019-02-04T19:26:47.357Z,63.00
2019-02-04T19:29:39.702Z,63.20
2019-02-04T19:32:31.827Z,62.90
2019-02-04T19:35:23.789Z,63.00
2019-02-04T19:38:15.816Z,63.00
2019-02-04T19:41:09.079Z,63.20
2019-02-04T19:44:01.078Z,63.20
2019-02-04T19:46:53.127Z,63.30
2019-02-04T19:49:45.213Z,63.30
2019-02-04T19:52:37.497Z,63.30
2019-02-04T19:55:29.600Z,63.20
2019-02-04T19:58:22.125Z,63.10
2019-02-04T20:01:14.586Z,63.10
2019-02-04T20:04:07.838Z,63.20
2019-02-04T20:07:00.258Z,63.20
2019-02-04T20:09:52.085Z,63.20
2019-02-04T20:12:44.191Z,63.20
2019-02-04T20:15:36.539Z,63.10
2019-02-04T20:18:28.922Z,63.00
2019-02-04T20:21:21.828Z,63.20
2019-02-04T20:24:14.643Z,63.40
2019-02-04T20:27:06.536Z,63.50
2019-02-04T20:29:58.519Z,63.60
2019-02-04T20:32:50.735Z,63.70
2019-02-04T20:35:42.598Z,63.70
2019-02-04T20:38:34.650Z,63.80
2019-02-04T20:41:26.870Z,64.00
2019-02-04T20:44:19.339Z,64.00
2019-02-04T20:47:11.655Z,64.00
2019-02-04T20:50:03.675Z,64.10
2019-02-04T20:52:56.620Z,63.90
2019-02-04T20:55:50.234Z,63.80
2019-02-04T20:58:42.896Z,63.90
2019-02-04T21:01:34.999Z,63.80
2019-02-04T21:04:27.703Z,64.60
2019-02-04T21:07:19.854Z,64.00
2019-02-04T21:10:13.110Z,63.70
2019-02-04T21:13:05.276Z,63.30
2019-02-04T21:15:57.452Z,64.20
2019-02-04T21:18:50.117Z,63.50
2019-02-04T21:21:43.720Z,63.50
2019-02-04T21:24:35.902Z,63.50
2019-02-04T21:27:27.996Z,63.40
2019-02-04T21:30:30.233Z,63.20
2019-02-04T21:33:22.585Z,63.40
2019-02-04T21:36:15.198Z,63.20
2019-02-04T21:39:10.289Z,63.00
2019-02-04T21:42:02.730Z,63.00
2019-02-04T21:44:56.093Z,63.20
2019-02-04T21:47:48.591Z,63.10
2019-02-04T21:50:40.866Z,63.10
2019-02-04T21:53:33.300Z,62.90
2019-02-04T21:56:25.412Z,62.80
2019-02-04T21:59:17.641Z,62.70
2019-02-04T22:02:09.684Z,63.00
2019-02-04T22:05:01.929Z,62.90
2019-02-04T22:07:54.372Z,62.80
2019-02-04T22:10:47.053Z,63.00
2019-02-04T22:13:39.250Z,62.80
2019-02-04T22:16:32.343Z,62.60
2019-02-04T22:19:24.647Z,62.50
2019-02-04T22:22:17.367Z,62.40
2019-02-04T22:25:19.421Z,62.40
2019-02-04T22:28:04.173Z,62.20
2019-02-04T22:30:56.168Z,62.30
2019-02-04T22:33:48.429Z,62.30
2019-02-04T22:36:40.312Z,62.20
2019-02-04T22:39:32.550Z,62.30
2019-02-04T22:42:24.882Z,62.20
2019-02-04T22:45:17.371Z,62.20
2019-02-04T22:48:09.273Z,61.70
2019-02-04T22:51:01.639Z,62.00
2019-02-04T22:53:53.849Z,62.20
2019-02-04T22:56:45.990Z,62.50
2019-02-04T22:59:38.318Z,61.90
2019-02-04T23:02:30.649Z,61.70
2019-02-04T23:05:22.712Z,62.10
2019-02-04T23:08:15.250Z,62.30
2019-02-04T23:11:07.362Z,62.30
2019-02-04T23:13:59.740Z,62.30
2019-02-04T23:16:52.012Z,62.40
2019-02-04T23:19:44.085Z,62.40
2019-02-04T23:22:36.396Z,62.10
2019-02-04T23:25:28.366Z,62.10
2019-02-04T23:28:20.075Z,62.00
2019-02-04T23:31:12.196Z,62.10
2019-02-04T23:34:04.230Z,62.00
2019-02-04T23:36:56.621Z,62.20
2019-02-04T23:39:48.526Z,62.30
2019-02-04T23:42:40.641Z,62.10
2019-02-04T23:45:34.630Z,62.30
2019-02-04T23:48:27.083Z,62.40
2019-02-04T23:51:19.159Z,62.50
2019-02-04T23:54:11.110Z,62.70
2019-02-04T23:57:03.165Z,62.80
2019-02-04T23:59:55.324Z,62.90
